Time;durP1;ratioP1;P1;durP2;ratioP2;P2;SDS_P1;SDS_P2;PMS_P1;PMS_P2;Temp;Humidity;BMP_temperature;BMP_pressure;BME280_temperature;BME280_humidity;BME280_pressure;Samples;Min_cycle;Max_cycle;Signal;HPM_P1;HPM_P2
2022/05/11 00:00:17;;;;;;;12.40;10.10;;;;;;;9.34;53.18;98072.41;104878;1287;22743;-87
2022/05/11 00:03:02;;;;;;;13.20;8.90;;;;;;;9.25;53.52;98069.93;105111;1287;23992;-86
2022/05/11 00:05:32;;;;;;;12.10;8.80;;;;;;;9.22;54.19;98065.07;105036;1287;25440;-86
2022/05/11 00:08:00;;;;;;;10.90;7.80;;;;;;;9.23;54.23;98061.77;107471;1286;22553;-88
2022/05/11 00:10:28;;;;;;;13.80;8.20;;;;;;;9.22;54.02;98062.07;105066;1287;22619;-87
2022/05/11 00:12:57;;;;;;;11.50;8.40;;;;;;;9.14;54.65;98057.85;104971;1287;22559;-87
2022/05/11 00:15:26;;;;;;;9.90;8.90;;;;;;;9.09;54.79;98057.95;105103;1287;23883;-87
2022/05/11 00:17:54;;;;;;;11.50;9.10;;;;;;;9.05;54.59;98056.48;105059;1287;22717;-86
2022/05/11 00:20:23;;;;;;;10.80;8.80;;;;;;;9.01;54.84;98054.11;105081;1287;25389;-87
2022/05/11 00:22:56;;;;;;;10.50;9.30;;;;;;;8.95;55.54;98054.82;105040;1287;22556;-86
2022/05/11 00:25:25;;;;;;;11.60;8.90;;;;;;;8.94;55.52;98053.71;104920;1287;22591;-86
2022/05/11 00:27:56;;;;;;;9.80;8.80;;;;;;;8.93;55.76;98055.37;104976;1287;22557;-87
2022/05/11 00:30:26;;;;;;;11.50;9.00;;;;;;;8.93;56.01;98053.55;104879;1287;22664;-87
2022/05/11 00:32:59;;;;;;;10.10;9.00;;;;;;;8.90;56.01;98049.48;104935;1287;24042;-87
2022/05/11 00:35:30;;;;;;;13.30;8.50;;;;;;;8.85;56.16;98051.20;105073;1287;22692;-87
2022/05/11 00:37:58;;;;;;;10.90;8.70;;;;;;;8.79;56.56;98053.89;104840;1288;25502;-86
2022/05/11 00:40:27;;;;;;;12.60;9.00;;;;;;;8.73;56.78;98057.66;104962;1287;22793;-88
2022/05/11 00:42:55;;;;;;;11.70;9.30;;;;;;;8.71;57.03;98056.38;104885;1286;25344;-87
2022/05/11 00:45:23;;;;;;;12.90;9.20;;;;;;;8.71;57.31;98052.84;104770;1289;22821;-86
2022/05/11 00:47:56;;;;;;;11.50;9.10;;;;;;;8.72;57.50;98053.42;104952;1287;24117;-86
2022/05/11 00:50:35;;;;;;;10.60;8.90;;;;;;;8.72;57.51;98047.95;104920;1287;22667;-86
2022/05/11 00:53:11;;;;;;;10.00;9.00;;;;;;;8.68;57.77;98051.69;104952;1288;22881;-87
2022/05/11 00:55:49;;;;;;;11.80;9.50;;;;;;;8.63;57.66;98056.08;104874;1287;22648;-86
2022/05/11 00:58:23;;;;;;;11.50;9.60;;;;;;;8.58;58.32;98052.67;104876;1287;25488;-85
2022/05/11 01:00:51;;;;;;;11.30;9.00;;;;;;;8.56;58.31;98050.23;104953;1287;22567;-87
2022/05/11 01:03:40;;;;;;;10.50;8.30;;;;;;;8.55;58.60;98053.23;104866;1287;23988;-86
2022/05/11 01:06:08;;;;;;;12.20;9.40;;;;;;;8.54;58.68;98054.98;104934;1287;22560;-87
2022/05/11 01:08:36;;;;;;;13.10;8.70;;;;;;;8.53;58.75;98050.73;104872;1287;22591;-86
2022/05/11 01:11:07;;;;;;;11.50;10.30;;;;;;;8.53;58.84;98046.66;104943;1287;24109;-86
2022/05/11 01:13:39;;;;;;;11.60;9.10;;;;;;;8.49;59.05;98050.61;104866;1287;23238;-84
2022/05/11 01:16:07;;;;;;;12.80;9.80;;;;;;;8.42;59.04;98040.40;104944;1287;22581;-85
2022/05/11 01:18:39;;;;;;;13.50;9.70;;;;;;;8.41;59.44;98039.17;104927;1287;25490;-87
2022/05/11 01:21:07;;;;;;;9.70;8.20;;;;;;;8.43;59.53;98037.44;104932;1287;22791;-87
2022/05/11 01:24:00;;;;;;;11.50;9.30;;;;;;;8.43;59.43;98035.99;104884;1288;22617;-86
2022/05/11 01:26:32;;;;;;;10.40;8.60;;;;;;;8.45;59.68;98035.65;104983;1287;22628;-87
2022/05/11 01:29:01;;;;;;;17.20;9.40;;;;;;;8.45;60.24;98035.55;104952;1287;24275;-87
2022/05/11 01:31:29;;;;;;;12.00;9.50;;;;;;;8.41;60.50;98029.98;105133;1287;24248;-88
2022/05/11 01:33:57;;;;;;;12.70;9.00;;;;;;;8.39;60.70;98031.34;104976;1287;22613;-86
2022/05/11 01:36:36;;;;;;;10.00;8.60;;;;;;;8.38;61.10;98027.95;105040;1287;23239;-85
2022/05/11 01:39:08;;;;;;;11.80;9.30;;;;;;;8.44;60.94;98027.55;104913;1287;25673;-87
2022/05/11 01:41:39;;;;;;;14.30;9.40;;;;;;;8.53;60.76;98022.96;105036;1287;26305;-87
2022/05/11 01:44:11;;;;;;;13.60;9.00;;;;;;;8.55;60.81;98025.58;104930;1287;24251;-85
2022/05/11 01:46:45;;;;;;;13.00;10.20;;;;;;;8.52;60.91;98026.09;105924;1287;22557;-86
2022/05/11 01:49:14;;;;;;;11.90;10.10;;;;;;;8.49;61.30;98021.27;106738;1287;23200;-87
2022/05/11 01:51:42;;;;;;;12.70;9.20;;;;;;;8.47;61.86;98019.38;105008;1287;22560;-86
2022/05/11 01:54:11;;;;;;;10.80;9.40;;;;;;;8.48;61.58;98021.56;105089;1287;22543;-86
2022/05/11 01:56:39;;;;;;;10.50;9.00;;;;;;;8.48;61.52;98019.30;105068;1287;23294;-85
2022/05/11 01:59:07;;;;;;;11.50;10.30;;;;;;;8.47;61.85;98017.27;105072;1288;22544;-86
2022/05/11 02:01:37;;;;;;;11.70;9.40;;;;;;;8.45;61.85;98016.20;104834;1287;24426;-87
2022/05/11 02:07:49;;;;;;;10.80;9.70;;;;;;;8.43;61.96;98018.32;104986;1287;22573;-86
2022/05/11 02:09:41;;;;;;;13.40;9.10;;;;;;;8.33;62.31;98012.30;104927;1287;24321;-87
2022/05/11 02:12:11;;;;;;;12.00;8.70;;;;;;;8.34;62.71;98016.27;105084;1287;24076;-87
2022/05/11 02:14:40;;;;;;;13.10;8.60;;;;;;;8.37;62.82;98012.77;104781;1287;22705;-87
2022/05/11 02:17:08;;;;;;;12.60;9.50;;;;;;;8.37;62.94;98011.32;105036;1287;25410;-87
2022/05/11 02:19:36;;;;;;;10.50;9.50;;;;;;;8.34;63.04;98011.22;104973;1288;24262;-86
2022/05/11 02:22:05;;;;;;;11.40;9.50;;;;;;;8.32;63.19;98003.24;107290;1289;22587;-85
2022/05/11 02:24:33;;;;;;;14.10;11.40;;;;;;;8.30;63.26;98006.86;105359;1287;22566;-87
2022/05/11 02:27:04;;;;;;;10.90;8.60;;;;;;;8.31;63.40;98004.75;105074;1287;22671;-88
2022/05/11 02:29:32;;;;;;;11.60;9.80;;;;;;;8.32;63.51;98001.95;104906;1289;22577;-85
2022/05/11 02:32:02;;;;;;;10.70;9.60;;;;;;;8.32;63.51;98002.05;104788;1291;25256;-86
2022/05/11 02:37:17;;;;;;;12.00;10.50;;;;;;;8.24;63.73;98004.05;104999;1290;22591;-87
2022/05/11 02:39:46;;;;;;;12.40;10.00;;;;;;;8.19;63.98;97998.30;104909;1289;24236;-86
2022/05/11 02:42:17;;;;;;;13.90;10.40;;;;;;;8.17;63.73;97997.77;104901;1287;23126;-86
2022/05/11 02:44:45;;;;;;;12.30;9.70;;;;;;;8.14;63.92;97997.63;105044;1287;24240;-87
2022/05/11 02:47:14;;;;;;;12.80;10.40;;;;;;;8.15;64.30;97995.42;105031;1287;24145;-86
2022/05/11 02:49:42;;;;;;;15.50;10.30;;;;;;;8.14;64.50;97996.30;104954;1287;22643;-87
2022/05/11 02:52:10;;;;;;;10.40;9.30;;;;;;;8.13;64.69;97996.46;105012;1288;23949;-87
2022/05/11 02:54:38;;;;;;;11.00;9.90;;;;;;;8.11;64.68;97991.11;104927;1287;25713;-85
2022/05/11 02:57:06;;;;;;;12.20;10.70;;;;;;;8.08;65.02;97996.27;105270;1288;25429;-87
2022/05/11 02:59:37;;;;;;;11.50;9.60;;;;;;;8.06;65.05;97991.90;105027;1289;24624;-87
2022/05/11 03:02:05;;;;;;;10.90;9.80;;;;;;;8.05;65.20;97992.98;105158;1287;25385;-86
2022/05/11 03:04:33;;;;;;;11.40;9.70;;;;;;;8.04;65.19;97988.80;105103;1287;23238;-86
2022/05/11 03:07:01;;;;;;;15.90;11.20;;;;;;;8.03;65.43;97989.30;105065;1287;22640;-84
2022/05/11 03:09:29;;;;;;;11.60;10.50;;;;;;;8.02;65.59;97990.70;105310;1287;24343;-85
2022/05/11 03:11:57;;;;;;;11.20;9.60;;;;;;;8.04;65.75;97989.29;105085;1287;23948;-82
2022/05/11 03:14:25;;;;;;;13.30;9.50;;;;;;;8.07;65.59;97981.85;105174;1287;25938;-85
2022/05/11 03:16:52;;;;;;;15.80;10.90;;;;;;;8.12;65.75;97984.13;105272;1287;22564;-87
2022/05/11 03:19:20;;;;;;;12.40;10.60;;;;;;;8.19;65.90;97984.23;105405;1287;25396;-87
2022/05/11 03:21:48;;;;;;;12.50;11.00;;;;;;;8.25;66.04;97976.78;105346;1287;22640;-87
2022/05/11 03:24:19;;;;;;;13.20;11.20;;;;;;;8.29;66.08;97976.04;105003;1289;25370;-87
2022/05/11 03:26:47;;;;;;;14.90;13.20;;;;;;;8.31;66.34;97978.93;106153;1287;23521;-87
2022/05/11 03:29:16;;;;;;;19.90;16.00;;;;;;;8.33;66.42;97981.27;106570;1287;22584;-88
2022/05/11 03:34:36;;;;;;;19.80;16.20;;;;;;;8.37;66.64;97980.17;105029;1287;22610;-87
2022/05/11 03:34:36;;;;;;;20.10;16.30;;;;;;;8.45;66.74;97982.48;104967;1287;25513;-87
2022/05/11 03:37:14;;;;;;;26.70;21.80;;;;;;;8.56;66.42;97981.68;105203;1287;26694;-87
2022/05/11 03:39:43;;;;;;;19.90;16.10;;;;;;;8.60;66.60;97977.39;105718;1287;24404;-88
2022/05/11 03:42:14;;;;;;;22.50;18.90;;;;;;;8.66;66.93;97976.00;105034;1287;22570;-86
2022/05/11 03:44:42;;;;;;;22.50;20.00;;;;;;;8.76;66.95;97973.15;104916;1288;23497;-86
2022/05/11 03:47:10;;;;;;;20.60;18.50;;;;;;;8.83;67.01;97978.84;105066;1287;22572;-87
2022/05/11 03:49:38;;;;;;;21.40;18.20;;;;;;;8.90;67.11;97975.05;105024;1287;22653;-88
2022/05/11 03:52:06;;;;;;;20.30;17.90;;;;;;;8.99;67.20;97978.40;104886;1290;22556;-87
2022/05/11 03:54:37;;;;;;;18.50;15.30;;;;;;;9.09;67.23;97977.90;104872;1287;25330;-87
2022/05/11 03:57:05;;;;;;;23.20;19.60;;;;;;;9.22;67.69;97979.63;104861;1287;22607;-85
2022/05/11 03:59:33;;;;;;;19.50;15.70;;;;;;;9.34;67.54;97981.64;104830;1287;24234;-86
2022/05/11 04:02:01;;;;;;;18.80;15.40;;;;;;;9.41;67.14;97981.06;104950;1287;25432;-86
2022/05/11 04:04:29;;;;;;;14.90;13.00;;;;;;;9.48;67.39;97978.71;104895;1287;24391;-88
2022/05/11 04:06:57;;;;;;;15.80;13.80;;;;;;;9.58;67.56;97976.91;104839;1290;25316;-87
2022/05/11 04:09:25;;;;;;;13.90;12.60;;;;;;;9.71;67.70;97978.71;104979;1287;25434;-87
2022/05/11 04:11:52;;;;;;;12.90;11.10;;;;;;;9.86;67.89;97977.38;104753;1290;22586;-86
2022/05/11 04:14:20;;;;;;;15.90;14.20;;;;;;;10.03;68.15;97977.12;104923;1287;23266;-87
2022/05/11 04:16:54;;;;;;;18.90;11.80;;;;;;;10.18;68.07;97979.05;104955;1287;23206;-87
2022/05/11 04:19:22;;;;;;;18.80;12.00;;;;;;;10.30;67.60;97980.17;104856;1290;24420;-88
2022/05/11 04:21:50;;;;;;;19.80;11.00;;;;;;;10.37;67.75;97980.00;104819;1288;22551;-87
2022/05/11 04:24:18;;;;;;;13.70;11.50;;;;;;;10.46;67.84;97978.23;104852;1287;25525;-87
2022/05/11 04:26:46;;;;;;;22.10;12.00;;;;;;;10.59;67.71;97981.79;104861;1287;25670;-87
2022/05/11 04:29:13;;;;;;;12.40;10.60;;;;;;;10.70;67.87;97976.67;104905;1287;25342;-88
2022/05/11 04:31:42;;;;;;;15.70;11.70;;;;;;;10.81;67.68;97976.47;104935;1287;24233;-92
2022/05/11 04:34:12;;;;;;;13.50;11.10;;;;;;;10.95;68.22;97976.98;105095;1287;22592;-85
2022/05/11 04:36:40;;;;;;;14.20;10.10;;;;;;;11.07;67.98;97978.36;105099;1287;23281;-86
2022/05/11 04:39:08;;;;;;;13.40;11.20;;;;;;;11.20;68.33;97980.42;104948;1286;22649;-86
2022/05/11 04:41:37;;;;;;;12.90;10.50;;;;;;;11.32;68.15;97981.09;104909;1289;24256;-87
2022/05/11 04:44:05;;;;;;;15.20;9.60;;;;;;;11.40;68.02;97983.41;104952;1289;24318;-88
2022/05/11 04:46:35;;;;;;;14.50;10.10;;;;;;;11.49;68.19;97982.27;107894;1287;22751;-85
2022/05/11 04:49:16;;;;;;;13.40;9.90;;;;;;;11.61;68.09;97980.71;107906;1287;22573;-86
2022/05/11 04:51:48;;;;;;;13.80;9.90;;;;;;;11.74;68.18;97978.85;105599;1287;24237;-87
2022/05/11 04:54:17;;;;;;;12.40;9.70;;;;;;;11.84;68.29;97983.55;105095;1287;24318;-88
2022/05/11 04:56:45;;;;;;;13.20;10.30;;;;;;;11.95;68.56;97983.58;105024;1287;24360;-87
2022/05/11 04:59:14;;;;;;;17.80;9.50;;;;;;;12.05;68.38;97981.46;104935;1289;24239;-87
2022/05/11 05:01:44;;;;;;;11.20;9.80;;;;;;;12.15;68.38;97981.45;105161;1287;25499;-86
2022/05/11 05:04:12;;;;;;;15.50;9.80;;;;;;;12.31;68.54;97982.41;104988;1289;22540;-85
2022/05/11 05:06:41;;;;;;;14.50;10.40;;;;;;;12.50;68.83;97985.74;106131;1287;22686;-89
2022/05/11 05:09:09;;;;;;;16.00;11.10;;;;;;;12.67;68.47;97987.18;106817;1287;24370;-87
2022/05/11 05:11:36;;;;;;;13.50;9.60;;;;;;;12.86;68.53;97985.72;105041;1287;24325;-90
2022/05/11 05:14:06;;;;;;;11.70;9.80;;;;;;;13.07;68.29;97983.35;104811;1288;22572;-88
2022/05/11 05:16:34;;;;;;;15.90;9.90;;;;;;;13.26;68.10;97985.57;105090;1287;22894;-87
2022/05/11 05:19:03;;;;;;;13.70;9.90;;;;;;;13.44;67.97;97980.19;104732;1290;25268;-87
2022/05/11 05:21:32;;;;;;;14.70;10.10;;;;;;;13.63;67.68;97983.66;105019;1289;22585;-87
2022/05/11 05:24:00;;;;;;;10.30;8.60;;;;;;;13.79;67.17;97981.48;105060;1287;22771;-86
2022/05/11 05:26:28;;;;;;;14.40;9.60;;;;;;;13.96;66.92;97982.55;105032;1289;22592;-87
2022/05/11 05:31:42;;;;;;;16.10;9.20;;;;;;;14.31;66.19;97981.38;104964;1287;22743;-87
2022/05/11 05:34:11;;;;;;;12.90;8.60;;;;;;;14.48;66.04;97977.70;105023;1287;24387;-88
2022/05/11 05:36:41;;;;;;;11.20;8.60;;;;;;;14.64;65.61;97979.94;105068;1287;22577;-87
2022/05/11 05:39:09;;;;;;;10.40;8.50;;;;;;;14.80;65.31;97982.33;104921;1287;27104;-88
2022/05/11 05:41:37;;;;;;;10.30;7.80;;;;;;;14.96;65.15;97986.86;105088;1287;22662;-86
2022/05/11 05:44:06;;;;;;;11.00;8.10;;;;;;;15.12;64.65;97988.14;105193;1287;22725;-86
2022/05/11 05:46:36;;;;;;;16.80;8.30;;;;;;;15.27;64.26;97985.55;105328;1287;25979;-87
2022/05/11 05:49:04;;;;;;;11.10;7.80;;;;;;;15.42;63.84;97980.71;105471;1287;22631;-86
2022/05/11 05:51:32;;;;;;;12.80;7.80;;;;;;;15.57;63.59;97985.94;105071;1287;24252;-85
2022/05/11 05:54:00;;;;;;;11.90;8.00;;;;;;;15.71;63.39;97985.20;105080;1287;25445;-87
2022/05/11 05:56:28;;;;;;;10.90;8.10;;;;;;;15.85;62.92;97987.96;104914;1289;22660;-87
2022/05/11 05:58:58;;;;;;;15.20;8.90;;;;;;;15.99;62.61;97986.52;105158;1287;25008;-88
2022/05/11 06:01:27;;;;;;;14.50;8.80;;;;;;;16.12;62.19;97988.27;105070;1289;24326;-87
2022/05/11 06:03:55;;;;;;;16.30;9.70;;;;;;;16.24;61.98;97991.98;105052;1287;25445;-86
2022/05/11 06:06:23;;;;;;;16.00;11.20;;;;;;;16.33;61.55;97991.29;105079;1287;24240;-86
2022/05/11 06:08:51;;;;;;;14.30;10.30;;;;;;;16.42;60.70;97995.31;105101;1287;23033;-87
2022/05/11 06:11:19;;;;;;;18.20;12.20;;;;;;;16.50;60.04;97997.53;105151;1287;25334;-86
2022/05/11 06:13:47;;;;;;;31.40;21.00;;;;;;;16.57;60.05;97999.19;104979;1287;24315;-87
2022/05/11 06:16:17;;;;;;;30.50;17.80;;;;;;;16.67;60.22;97998.30;105018;1287;23286;-86
2022/05/11 06:18:53;;;;;;;14.90;9.20;;;;;;;16.74;59.53;97998.41;105062;1287;22550;-86
2022/05/11 06:21:21;;;;;;;19.40;11.40;;;;;;;16.80;59.40;98002.73;105111;1287;24116;-86
2022/05/11 06:23:49;;;;;;;12.40;9.30;;;;;;;16.88;58.91;97999.88;105079;1287;25536;-88
2022/05/11 06:26:18;;;;;;;17.20;9.40;;;;;;;16.96;58.00;98004.81;105343;1287;22675;-86
2022/05/11 06:28:54;;;;;;;12.10;9.20;;;;;;;17.06;58.53;98007.24;105411;1287;22599;-88
2022/05/11 06:31:23;;;;;;;13.20;9.20;;;;;;;17.18;58.03;98005.86;105558;1287;25672;-87
2022/05/11 06:33:55;;;;;;;10.30;8.20;;;;;;;17.29;56.84;98006.12;105327;1287;26769;-86
2022/05/11 06:36:24;;;;;;;10.20;8.20;;;;;;;17.40;56.36;98003.20;105426;1288;23284;-89
2022/05/11 06:38:54;;;;;;;13.70;8.70;;;;;;;17.51;57.02;97998.42;105381;1287;22563;-86
2022/05/11 06:41:27;;;;;;;9.60;8.00;;;;;;;17.69;56.66;97996.25;107873;1287;22617;-89
2022/05/11 06:43:59;;;;;;;14.90;8.10;;;;;;;17.80;55.07;97995.98;107363;1287;22582;-87
2022/05/11 06:46:28;;;;;;;13.10;8.00;;;;;;;17.92;55.46;97999.39;105255;1288;24238;-86
2022/05/11 06:48:56;;;;;;;14.00;7.60;;;;;;;18.09;55.43;97995.22;107072;1287;23472;-87
2022/05/11 06:51:24;;;;;;;12.30;7.20;;;;;;;18.26;54.82;97989.92;105152;1287;24367;-87
2022/05/11 06:59:30;;;;;;;16.10;7.20;;;;;;;18.59;53.34;97989.34;105128;1287;22589;-87
2022/05/11 07:02:50;;;;;;;27.40;8.40;;;;;;;18.68;52.65;97991.98;105143;1287;25376;-88
2022/05/11 07:05:18;;;;;;;14.50;7.80;;;;;;;18.83;52.74;97991.55;105472;1287;22565;-87
2022/05/11 07:07:46;;;;;;;12.70;7.40;;;;;;;18.89;51.44;97990.55;105079;1287;22570;-87
2022/05/11 07:10:16;;;;;;;14.90;8.50;;;;;;;18.97;51.40;97991.29;105122;1287;22808;-87
2022/05/11 07:12:48;;;;;;;9.40;6.80;;;;;;;19.08;51.74;97990.21;105233;1287;25659;-87
2022/05/11 07:15:18;;;;;;;16.50;6.70;;;;;;;19.17;49.94;97990.30;105259;1287;22745;-85
2022/05/11 07:17:59;;;;;;;13.30;7.90;;;;;;;19.24;51.06;97986.73;105094;1288;22707;-86
2022/05/11 07:20:36;;;;;;;15.00;8.90;;;;;;;19.36;50.29;97985.98;105054;1289;25554;-86
2022/05/11 07:23:07;;;;;;;19.30;8.20;;;;;;;19.42;49.49;97982.07;105062;1287;25478;-86
2022/05/11 07:25:35;;;;;;;13.70;7.50;;;;;;;19.49;49.78;97986.06;105215;1287;22717;-87
2022/05/11 07:28:03;;;;;;;10.70;7.20;;;;;;;19.56;48.40;97986.15;104891;1289;22700;-89
2022/05/11 07:30:37;;;;;;;18.20;7.50;;;;;;;19.59;47.98;97983.94;105012;1289;25401;-85
2022/05/11 07:33:07;;;;;;;13.30;7.40;;;;;;;19.63;48.39;97980.75;105148;1287;22573;-87
2022/05/11 07:35:35;;;;;;;14.20;8.40;;;;;;;19.67;49.28;97979.55;105114;1288;25451;-87
2022/05/11 07:38:17;;;;;;;15.50;9.00;;;;;;;19.74;49.13;97970.23;104982;1287;22594;-87
2022/05/11 07:40:45;;;;;;;19.00;12.70;;;;;;;19.83;49.30;97969.27;105198;1287;25237;-86
2022/05/11 07:43:13;;;;;;;15.10;11.70;;;;;;;19.93;49.41;97969.34;105006;1289;22564;-86
2022/05/11 07:45:42;;;;;;;23.40;21.10;;;;;;;20.02;48.62;97970.22;105179;1287;25487;-87
2022/05/11 07:48:10;;;;;;;33.40;29.90;;;;;;;20.07;48.08;97971.02;105027;1289;22553;-87
2022/05/11 07:50:38;;;;;;;26.30;23.20;;;;;;;20.13;48.57;97969.66;105200;1287;24104;-86
2022/05/11 07:53:06;;;;;;;20.20;17.10;;;;;;;20.25;49.30;97964.98;105069;1287;24975;-90
2022/05/11 07:55:36;;;;;;;14.20;11.10;;;;;;;20.38;48.97;97965.77;105752;1287;25702;-85
2022/05/11 08:00:50;;;;;;;20.20;11.80;;;;;;;20.52;47.98;97959.40;105597;1287;22183;-85
2022/05/11 08:03:18;;;;;;;19.30;15.60;;;;;;;20.61;48.45;97956.55;108517;1287;22644;-85
2022/05/11 08:05:46;;;;;;;15.20;13.10;;;;;;;20.71;47.83;97955.30;108573;1287;22606;-85
2022/05/11 08:08:14;;;;;;;16.10;10.30;;;;;;;20.76;47.03;97956.56;108442;1287;22609;-85
2022/05/11 08:10:45;;;;;;;16.50;10.60;;;;;;;20.83;47.70;97954.43;107146;1287;22500;-85
2022/05/11 08:13:13;;;;;;;22.70;18.20;;;;;;;20.94;47.98;97951.09;107103;1287;24748;-85
2022/05/11 08:15:49;;;;;;;19.10;12.60;;;;;;;21.07;47.93;97948.32;107376;1287;22557;-85
2022/05/11 08:18:18;;;;;;;16.90;10.70;;;;;;;21.20;47.56;97943.60;107539;1287;22579;-86
2022/05/11 08:20:47;;;;;;;24.10;13.50;;;;;;;21.34;47.71;97939.52;106671;1287;24644;-88
2022/05/11 08:23:15;;;;;;;20.20;15.70;;;;;;;21.45;47.47;97937.98;105169;1287;22654;-87
2022/05/11 08:25:46;;;;;;;18.50;13.60;;;;;;;21.50;45.46;97940.80;105075;1287;25433;-87
2022/05/11 08:28:18;;;;;;;22.40;15.20;;;;;;;21.58;45.87;97934.55;105767;1287;22564;-85
2022/05/11 08:33:40;;;;;;;12.80;7.50;;;;;;;21.82;46.38;97930.10;105114;1287;22572;-86
2022/05/11 08:36:28;;;;;;;12.00;7.70;;;;;;;22.01;45.79;97925.01;105299;1288;22582;-87
2022/05/11 08:38:58;;;;;;;10.50;6.50;;;;;;;22.20;45.78;97929.02;105185;1287;22714;-86
2022/05/11 08:41:51;;;;;;;10.50;6.60;;;;;;;22.36;44.65;97928.58;105313;1287;24242;-87
2022/05/11 08:44:26;;;;;;;12.10;5.50;;;;;;;22.46;44.36;97924.27;105292;1287;26648;-86
2022/05/11 08:47:19;;;;;;;11.40;6.20;;;;;;;22.58;44.77;97924.48;105437;1287;22718;-86
2022/05/11 08:50:22;;;;;;;11.40;6.60;;;;;;;22.72;44.67;97920.84;105733;1287;25665;-87
2022/05/11 08:53:04;;;;;;;8.70;6.50;;;;;;;22.81;43.19;97923.11;105251;1287;23296;-87
2022/05/11 08:55:47;;;;;;;10.10;5.20;;;;;;;22.89;43.58;97926.02;105056;1287;24254;-86
2022/05/11 08:58:18;;;;;;;8.40;5.10;;;;;;;22.94;41.32;97927.80;105051;1287;24338;-89
2022/05/11 09:00:46;;;;;;;15.10;5.20;;;;;;;22.98;41.87;97926.98;105007;1287;22546;-88
2022/05/11 09:03:32;;;;;;;9.60;5.20;;;;;;;23.05;43.07;97917.94;105119;1286;23938;-87
2022/05/11 09:06:05;;;;;;;9.90;5.70;;;;;;;23.22;42.76;97918.77;105089;1287;22730;-86
2022/05/11 09:08:37;;;;;;;10.10;4.70;;;;;;;23.31;41.17;97918.42;104871;1287;22664;-85
2022/05/11 09:11:07;;;;;;;11.40;5.50;;;;;;;23.31;41.23;97919.52;105175;1287;24008;-86
2022/05/11 09:13:37;;;;;;;10.00;4.80;;;;;;;23.34;40.93;97916.88;104919;1287;22862;-86
2022/05/11 09:16:27;;;;;;;10.10;5.00;;;;;;;23.44;42.13;97911.61;105032;1287;24455;-85
2022/05/11 09:18:56;;;;;;;11.00;5.80;;;;;;;23.62;41.94;97919.34;105054;1287;22675;-86
2022/05/11 09:21:31;;;;;;;7.70;4.40;;;;;;;23.75;40.42;97922.73;105103;1287;25436;-85
2022/05/11 09:24:21;;;;;;;9.80;4.60;;;;;;;23.78;40.83;97922.27;105093;1287;24223;-87
2022/05/11 09:27:06;;;;;;;9.60;5.20;;;;;;;23.84;40.69;97916.56;105006;1287;24276;-86
2022/05/11 09:29:40;;;;;;;9.50;4.90;;;;;;;23.90;40.27;97914.85;104861;1288;22581;-86
2022/05/11 09:32:29;;;;;;;10.10;5.20;;;;;;;23.99;40.58;97917.57;105077;1287;23109;-86
2022/05/11 09:35:16;;;;;;;10.40;5.50;;;;;;;24.10;39.82;97919.16;104957;1287;25510;-86
2022/05/11 09:37:54;;;;;;;9.50;5.30;;;;;;;24.16;39.47;97917.08;105077;1287;22585;-87
2022/05/11 09:40:22;;;;;;;11.50;4.90;;;;;;;24.27;38.55;97920.42;104755;1288;22561;-88
2022/05/11 09:43:04;;;;;;;10.40;5.00;;;;;;;24.28;38.37;97926.94;104887;1289;22706;-86
2022/05/11 09:45:45;;;;;;;13.00;5.70;;;;;;;24.25;38.00;97923.09;105089;1287;23110;-87
2022/05/11 09:48:16;;;;;;;11.60;5.40;;;;;;;24.25;38.08;97915.85;105117;1287;22567;-86
2022/05/11 09:50:47;;;;;;;8.60;4.80;;;;;;;24.28;38.75;97909.88;105108;1287;22721;-87
2022/05/11 09:53:22;;;;;;;10.50;5.80;;;;;;;24.31;37.99;97909.73;104912;1287;26648;-87
2022/05/11 09:55:50;;;;;;;10.80;5.60;;;;;;;24.39;38.20;97906.83;104992;1287;22584;-87
2022/05/11 09:58:39;;;;;;;8.50;5.40;;;;;;;24.51;37.46;97906.73;104916;1287;22569;-84
2022/05/11 10:01:29;;;;;;;8.40;5.20;;;;;;;24.64;37.65;97909.36;105117;1287;24426;-87
2022/05/11 10:04:04;;;;;;;;;;;;;;;24.68;36.88;97910.21;105040;1287;22771;-87
2022/05/11 10:06:54;;;;;;;10.90;5.80;;;;;;;24.62;35.49;97910.44;105095;1287;23377;-88
2022/05/11 10:09:32;;;;;;;13.30;5.80;;;;;;;24.63;36.08;97909.98;105911;1287;25389;-86
2022/05/11 10:12:10;;;;;;;12.00;5.60;;;;;;;24.67;35.57;97908.25;105237;1287;22640;-86
2022/05/11 10:23:46;;;;;;;9.60;5.50;;;;;;;24.94;35.46;97899.52;105223;1287;22620;-81
2022/05/11 10:26:34;;;;;;;14.90;5.20;;;;;;;25.04;35.87;97893.76;105193;1287;22567;-81
2022/05/11 10:29:17;;;;;;;28.30;5.10;;;;;;;25.23;35.32;97890.31;105040;1287;23239;-82
2022/05/11 10:32:09;;;;;;;13.20;5.40;;;;;;;25.30;34.44;97892.27;105139;1287;23981;-83
2022/05/11 10:34:50;;;;;;;9.70;5.30;;;;;;;25.39;35.01;97892.88;105034;1287;22632;-83
2022/05/11 10:37:46;;;;;;;8.60;5.20;;;;;;;25.44;34.98;97887.98;105029;1287;25323;-83
2022/05/11 10:40:28;;;;;;;11.20;6.00;;;;;;;25.36;34.58;97895.10;105162;1287;22792;-83
2022/05/11 10:43:05;;;;;;;10.40;6.00;;;;;;;25.28;34.83;97890.70;105098;1287;25438;-83
2022/05/11 10:45:48;;;;;;;12.50;4.70;;;;;;;25.25;34.04;97890.77;105207;1287;22726;-90
2022/05/11 10:48:54;;;;;;;13.00;5.30;;;;;;;25.29;33.36;97891.33;105077;1287;22604;-84
2022/05/11 10:51:28;;;;;;;14.40;8.60;;;;;;;25.26;32.65;97888.89;105199;1287;22569;-84
2022/05/11 10:54:48;;;;;;;9.40;5.10;;;;;;;25.34;33.43;97886.91;105091;1287;22560;-83
2022/05/11 10:57:39;;;;;;;10.20;5.10;;;;;;;25.39;32.34;97885.33;105913;1294;22507;-84
2022/05/11 11:00:12;;;;;;;11.00;4.80;;;;;;;25.41;32.83;97876.64;106546;1294;22594;-84
2022/05/11 11:02:49;;;;;;;16.10;8.20;;;;;;;25.50;33.11;97880.24;104823;1294;23425;-86
2022/05/11 11:05:34;;;;;;;7.30;5.20;;;;;;;25.61;33.57;97883.45;104228;1293;22596;-85
2022/05/11 11:08:11;;;;;;;9.20;5.70;;;;;;;25.64;32.90;97879.97;104283;1294;22574;-86
2022/05/11 11:10:47;;;;;;;8.30;4.80;;;;;;;25.57;32.57;97879.36;104339;1294;25450;-84
2022/05/11 11:13:31;;;;;;;10.20;4.80;;;;;;;25.45;32.83;97873.64;104323;1294;23454;-84
2022/05/11 11:16:02;;;;;;;10.70;5.30;;;;;;;25.32;32.58;97881.46;104420;1294;24632;-85
2022/05/11 11:18:37;;;;;;;6.90;4.20;;;;;;;25.25;32.42;97878.88;104453;1294;22593;-84
2022/05/11 11:21:08;;;;;;;9.20;5.30;;;;;;;25.08;32.18;97872.65;104341;1294;22527;-84
2022/05/11 11:23:39;;;;;;;10.30;5.50;;;;;;;25.03;32.72;97871.01;104232;1294;24559;-85
2022/05/11 11:26:10;;;;;;;8.80;5.70;;;;;;;25.02;32.87;97879.27;104218;1294;22581;-84
2022/05/11 11:28:40;;;;;;;11.00;5.60;;;;;;;25.07;32.75;97879.83;104333;1294;25446;-84
2022/05/11 11:31:12;;;;;;;9.20;4.40;;;;;;;25.12;32.28;97878.57;104510;1287;22501;-83
2022/05/11 11:33:54;;;;;;;12.90;5.30;;;;;;;25.15;32.26;97872.84;105108;1287;25391;-84
2022/05/11 11:36:28;;;;;;;6.60;4.60;;;;;;;25.21;32.59;97867.07;105122;1287;22804;-84
2022/05/11 11:38:59;;;;;;;8.40;4.00;;;;;;;25.29;32.00;97877.60;105066;1287;22643;-84
2022/05/11 11:41:28;;;;;;;7.00;4.00;;;;;;;25.41;31.69;97867.66;104961;1289;22563;-83
2022/05/11 11:44:03;;;;;;;9.80;4.40;;;;;;;25.55;31.87;97864.93;105009;1287;25883;-84
2022/05/11 11:46:34;;;;;;;7.80;4.80;;;;;;;25.72;31.65;97868.52;105082;1287;25676;-84
2022/05/11 11:49:27;;;;;;;11.20;4.60;;;;;;;25.91;32.40;97855.92;105518;1287;22632;-83
2022/05/11 11:52:05;;;;;;;8.60;4.30;;;;;;;26.16;31.98;97855.48;105143;1287;22593;-84
2022/05/11 11:54:39;;;;;;;8.40;4.90;;;;;;;26.27;31.98;97856.73;105198;1287;22637;-86
2022/05/11 11:57:22;;;;;;;13.20;4.60;;;;;;;26.19;31.15;97856.48;105065;1289;22663;-85
2022/05/11 11:59:52;;;;;;;9.10;4.50;;;;;;;26.12;32.15;97851.39;105030;1287;23479;-85
2022/05/11 12:02:28;;;;;;;10.40;4.70;;;;;;;26.11;31.49;97848.39;105110;1288;22569;-84
2022/05/11 12:05:24;;;;;;;8.20;4.60;;;;;;;26.10;31.58;97844.86;105118;1287;23458;-84
2022/05/11 12:15:09;;;;;;;6.20;4.60;;;;;;;25.82;31.61;97849.00;105399;1287;23222;-86
2022/05/11 12:17:29;;;;;;;12.80;4.90;;;;;;;25.78;31.74;97845.13;105023;1287;25512;-84
2022/05/11 12:20:04;;;;;;;11.00;4.00;;;;;;;25.89;32.12;97834.78;105182;1287;22583;-84